Time;durP1;ratioP1;P1;durP2;ratioP2;P2;SDS_P1;SDS_P2;PMS_P1;PMS_P2;Temp;Humidity;BMP_temperature;BMP_pressure;BME280_temperature;BME280_humidity;BME280_pressure;Samples;Min_cycle;Max_cycle;Signal;HPM_P1;HPM_P2
2021/05/23 00:00:24;;;;;;;4.18;1.45;;;;;;;12.33;59.86;99554.41;4420530;32;20733;-91
2021/05/23 00:02:49;;;;;;;4.03;1.37;;;;;;;12.17;59.85;99555.03;4408557;32;20089;-91
2021/05/23 00:05:16;;;;;;;3.08;1.70;;;;;;;11.97;59.84;99568.91;4407783;32;20112;-91
2021/05/23 00:07:54;;;;;;;2.97;1.20;;;;;;;12.00;59.84;99573.13;4407734;32;20140;-92
2021/05/23 00:10:19;;;;;;;5.15;1.60;;;;;;;12.12;59.84;99567.44;4407490;32;20128;-91
2021/05/23 00:12:46;;;;;;;3.33;1.70;;;;;;;11.99;59.84;99572.28;4394683;32;20138;-92
2021/05/23 00:15:12;;;;;;;2.50;1.23;;;;;;;11.95;59.84;99572.47;4407757;32;20089;-91
2021/05/23 00:17:37;;;;;;;2.95;1.58;;;;;;;12.09;59.84;99561.50;4407387;32;20093;-90
2021/05/23 00:20:04;;;;;;;3.53;1.62;;;;;;;12.45;59.87;99562.53;4407383;32;20580;-91
2021/05/23 00:22:29;;;;;;;3.33;1.90;;;;;;;12.14;59.85;99559.53;4407368;32;20157;-90
2021/05/23 00:24:55;;;;;;;3.85;1.60;;;;;;;12.08;59.85;99565.87;4406724;32;30895;-91
2021/05/23 00:27:20;;;;;;;3.40;1.80;;;;;;;12.04;59.84;99564.25;4420648;32;27698;-91
2021/05/23 00:29:45;;;;;;;3.55;1.55;;;;;;;12.05;59.84;99573.78;4406510;32;30728;-91
2021/05/23 00:32:11;;;;;;;4.60;1.40;;;;;;;12.16;59.85;99570.75;4419482;32;22248;-91
2021/05/23 00:34:36;;;;;;;5.87;1.55;;;;;;;12.15;59.85;99571.66;4394831;32;20133;-91
2021/05/23 00:37:02;;;;;;;2.70;1.50;;;;;;;12.30;59.86;99571.00;4406955;32;26524;-91
2021/05/23 00:39:27;;;;;;;2.12;1.42;;;;;;;12.26;59.85;99572.06;4407329;32;20150;-91
2021/05/23 00:41:52;;;;;;;6.70;1.55;;;;;;;12.34;59.86;99571.75;4394186;32;27289;-91
2021/05/23 00:44:18;;;;;;;4.43;1.65;;;;;;;12.15;59.85;99569.06;4406394;32;36684;-91
2021/05/23 00:46:43;;;;;;;2.03;1.60;;;;;;;12.35;59.86;99571.69;4407155;32;20149;-91
2021/05/23 00:49:09;;;;;;;2.72;1.50;;;;;;;12.18;59.85;99569.78;4407385;32;20517;-91
2021/05/23 00:51:34;;;;;;;6.30;1.60;;;;;;;12.18;59.85;99568.94;4394507;32;20129;-92
2021/05/23 00:53:59;;;;;;;2.40;1.87;;;;;;;12.22;59.86;99563.50;4394444;32;20149;-91
2021/05/23 00:56:25;;;;;;;3.65;1.58;;;;;;;12.19;59.84;99568.03;4406437;32;34031;-90
2021/05/23 00:58:50;;;;;;;4.68;2.62;;;;;;;12.24;59.86;99555.62;4391644;32;112790;-91
2021/05/23 01:01:43;;;;;;;2.85;1.55;;;;;;;12.32;59.86;99573.59;4420635;32;20119;-91
2021/05/23 01:04:09;;;;;;;2.97;1.37;;;;;;;12.31;59.86;99577.97;4422148;32;20155;-92
2021/05/23 01:06:34;;;;;;;2.85;1.58;;;;;;;12.42;59.86;99573.13;4395437;32;20405;-90
2021/05/23 01:09:00;;;;;;;4.35;1.67;;;;;;;12.34;59.86;99583.06;4394680;32;28583;-90
2021/05/23 01:11:28;;;;;;;6.07;1.60;;;;;;;12.46;59.87;99573.84;4402890;32;20113;-91
2021/05/23 01:13:56;;;;;;;5.68;1.60;;;;;;;12.79;59.88;99574.16;4437194;32;20078;-90
2021/05/23 01:16:33;;;;;;;2.10;1.27;;;;;;;12.85;59.88;99571.28;4429783;32;20514;-90
2021/05/23 01:19:09;;;;;;;5.05;1.50;;;;;;;12.50;59.88;99571.03;4398721;32;20190;-91
2021/05/23 01:21:38;;;;;;;4.07;1.37;;;;;;;12.45;59.87;99567.78;4410544;32;20151;-90
2021/05/23 01:24:04;;;;;;;4.40;1.30;;;;;;;12.41;59.86;99568.81;4410297;32;20149;-92
2021/05/23 01:26:37;;;;;;;2.85;1.35;;;;;;;12.39;59.86;99570.66;4409932;32;20175;-91
2021/05/23 01:29:06;;;;;;;1.75;1.40;;;;;;;12.37;59.87;99567.25;4397763;32;20162;-91
2021/05/23 01:31:32;;;;;;;1.95;1.20;;;;;;;12.25;59.85;99563.38;4397282;32;20098;-90
2021/05/23 01:33:58;;;;;;;2.35;1.60;;;;;;;12.29;59.86;99580.59;4422450;32;20106;-90
2021/05/23 01:36:26;;;;;;;4.10;1.30;;;;;;;12.34;59.86;99588.28;4397112;32;20125;-91
2021/05/23 01:38:51;;;;;;;4.22;1.45;;;;;;;12.22;59.86;99587.00;4409766;32;20101;-90
2021/05/23 01:41:17;;;;;;;2.95;1.52;;;;;;;12.26;59.85;99596.41;4409344;32;20149;-90
2021/05/23 01:43:42;;;;;;;3.10;1.27;;;;;;;12.23;59.85;99590.47;4396512;32;26204;-91
2021/05/23 01:46:08;;;;;;;3.15;1.35;;;;;;;12.27;59.85;99592.88;4396324;32;32463;-90
2021/05/23 01:48:34;;;;;;;3.10;1.30;;;;;;;12.22;59.86;99591.38;4397023;32;20201;-90
2021/05/23 01:51:00;;;;;;;2.60;1.27;;;;;;;12.27;59.85;99582.44;4396929;32;20089;-91
2021/05/23 01:53:25;;;;;;;2.12;1.33;;;;;;;12.31;59.86;99588.41;4409485;32;20391;-90
2021/05/23 01:55:51;;;;;;;2.70;1.58;;;;;;;12.37;59.87;99588.13;4421414;32;23956;-91
2021/05/23 01:58:16;;;;;;;1.80;1.30;;;;;;;12.42;59.86;99593.16;4408404;32;34390;-91
2021/05/23 02:00:43;;;;;;;4.37;1.52;;;;;;;12.45;59.87;99580.81;4408611;32;33123;-90
2021/05/23 02:03:10;;;;;;;3.10;1.60;;;;;;;12.27;59.85;99582.44;4396866;32;20644;-91
2021/05/23 02:05:36;;;;;;;4.62;1.30;;;;;;;12.35;59.86;99578.69;4409546;32;20105;-91
2021/05/23 02:08:02;;;;;;;3.42;1.60;;;;;;;12.38;59.86;99583.75;4396902;32;20173;-91
2021/05/23 02:10:28;;;;;;;3.42;1.40;;;;;;;12.37;59.87;99590.75;4409320;32;20116;-91
2021/05/23 02:12:55;;;;;;;6.97;1.92;;;;;;;12.53;59.87;99583.94;4422255;32;20184;-91
2021/05/23 02:15:21;;;;;;;3.78;1.50;;;;;;;12.47;59.87;99589.44;4397545;32;20109;-90
2021/05/23 02:17:46;;;;;;;4.47;1.52;;;;;;;12.39;59.86;99588.91;4409680;32;20141;-90
2021/05/23 02:20:18;;;;;;;3.70;1.50;;;;;;;12.47;59.87;99589.44;4409499;32;20092;-90
2021/05/23 02:22:44;;;;;;;3.03;1.67;;;;;;;12.42;59.86;99583.56;4397469;32;20106;-90
2021/05/23 02:25:11;;;;;;;4.87;1.50;;;;;;;12.52;59.87;99589.22;4409571;32;20144;-91
2021/05/23 02:27:38;;;;;;;4.40;1.33;;;;;;;12.60;59.88;99585.41;4409266;32;20418;-90
2021/05/23 02:30:09;;;;;;;7.45;1.60;;;;;;;12.76;59.89;99576.88;4409594;32;20854;-91
2021/05/23 02:32:35;;;;;;;5.10;1.98;;;;;;;12.73;59.88;99579.63;4409391;32;20074;-91
2021/05/23 02:35:00;;;;;;;3.37;1.60;;;;;;;12.64;59.87;99583.50;4423403;32;20102;-91
2021/05/23 02:37:26;;;;;;;2.83;1.90;;;;;;;12.66;59.88;99588.66;4396630;32;20148;-91
2021/05/23 02:39:51;;;;;;;3.60;1.50;;;;;;;12.69;59.88;99596.34;4408809;32;20137;-90
2021/05/23 02:42:16;;;;;;;3.95;1.60;;;;;;;12.68;59.88;99605.94;4421119;32;26647;-89
2021/05/23 02:44:42;;;;;;;3.78;1.85;;;;;;;12.66;59.88;99606.94;4408383;32;27428;-90
2021/05/23 02:47:07;;;;;;;5.22;1.90;;;;;;;12.58;59.88;99604.66;4408922;32;20105;-90
2021/05/23 02:49:33;;;;;;;3.30;1.62;;;;;;;12.61;59.88;99601.91;4395621;32;29199;-90
2021/05/23 02:51:58;;;;;;;5.00;1.95;;;;;;;12.58;59.88;99599.44;4422322;32;26505;-90
2021/05/23 02:54:23;;;;;;;3.35;1.80;;;;;;;12.63;59.88;99604.47;4407981;32;36750;-90
2021/05/23 02:56:49;;;;;;;4.25;1.85;;;;;;;12.65;59.87;99606.09;4420865;32;26516;-90
2021/05/23 02:59:14;;;;;;;4.93;1.80;;;;;;;12.77;59.88;99599.47;4408205;32;30579;-90
2021/05/23 03:01:39;;;;;;;3.72;2.00;;;;;;;12.88;59.88;99589.44;4395653;32;26026;-90
2021/05/23 03:04:05;;;;;;;2.72;1.60;;;;;;;12.85;59.89;99597.41;4395715;32;27626;-91
2021/05/23 03:06:31;;;;;;;5.20;2.15;;;;;;;12.88;59.88;99600.72;4421819;32;20150;-91
2021/05/23 03:08:56;;;;;;;6.50;2.37;;;;;;;12.91;59.89;99605.81;4396615;32;20413;-91
2021/05/23 03:11:21;;;;;;;4.82;2.25;;;;;;;12.93;59.89;99602.28;4421807;32;20125;-91
2021/05/23 03:13:47;;;;;;;6.25;2.45;;;;;;;12.97;59.90;99607.28;4408523;32;34365;-92
2021/05/23 03:16:12;;;;;;;4.75;2.33;;;;;;;13.03;59.89;99606.19;4408581;32;24070;-92
2021/05/23 03:18:38;;;;;;;6.80;2.30;;;;;;;13.07;59.90;99605.16;4396351;32;20177;-90
2021/05/23 03:21:03;;;;;;;3.92;2.55;;;;;;;13.15;59.90;99614.31;4408430;32;20211;-90
2021/05/23 03:23:29;;;;;;;6.82;2.70;;;;;;;13.27;59.90;99614.75;4421529;32;20132;-90
2021/05/23 03:25:54;;;;;;;4.93;2.42;;;;;;;13.15;59.90;99621.31;4408522;32;20167;-90
2021/05/23 03:28:21;;;;;;;10.52;4.35;;;;;;;13.19;59.91;99621.13;4408465;32;20137;-89
2021/05/23 03:30:46;;;;;;;9.90;3.20;;;;;;;13.41;59.91;99628.03;4422832;32;20116;-90
2021/05/23 03:33:12;;;;;;;7.00;2.67;;;;;;;13.47;59.92;99630.34;4408520;32;20470;-89
2021/05/23 03:35:37;;;;;;;4.80;2.35;;;;;;;13.39;59.92;99622.00;4408519;32;20143;-89
2021/05/23 03:38:03;;;;;;;4.18;2.42;;;;;;;13.48;59.91;99618.97;4407866;32;20107;-89
2021/05/23 03:40:31;;;;;;;5.90;2.85;;;;;;;13.46;59.92;99620.81;4408191;32;22921;-89
2021/05/23 03:42:56;;;;;;;5.40;2.60;;;;;;;13.56;59.92;99621.25;4408859;32;20097;-90
2021/05/23 03:45:22;;;;;;;3.25;2.15;;;;;;;13.45;59.92;99624.34;4407840;32;31558;-90
2021/05/23 03:47:47;;;;;;;6.53;3.10;;;;;;;13.35;59.92;99636.16;4396283;32;20132;-91
2021/05/23 03:50:15;;;;;;;5.90;3.45;;;;;;;13.20;59.91;99641.13;4411350;32;21639;-89
2021/05/23 03:52:40;;;;;;;4.78;3.20;;;;;;;13.21;59.91;99631.53;4424738;32;20070;-89
2021/05/23 03:55:06;;;;;;;4.80;2.67;;;;;;;13.24;59.91;99635.75;4412270;32;20140;-90
2021/05/23 03:57:32;;;;;;;10.48;4.97;;;;;;;13.27;59.92;99633.88;4396805;32;20118;-90
2021/05/23 03:59:57;;;;;;;8.73;4.40;;;;;;;13.29;59.91;99639.03;4421001;32;20102;-89
2021/05/23 04:02:23;;;;;;;8.05;4.40;;;;;;;13.22;59.91;99628.00;4421082;32;20170;-89
2021/05/23 04:04:49;;;;;;;7.30;4.55;;;;;;;13.36;59.92;99641.31;4408322;32;20097;-90
2021/05/23 04:07:16;;;;;;;8.07;5.35;;;;;;;13.40;59.92;99639.41;4408693;32;20116;-90
2021/05/23 04:09:42;;;;;;;12.40;5.37;;;;;;;13.35;59.92;99644.84;4395855;32;20106;-90
2021/05/23 04:12:09;;;;;;;12.85;6.05;;;;;;;13.51;59.93;99647.62;4395841;32;20150;-90
2021/05/23 04:14:34;;;;;;;9.48;5.62;;;;;;;13.63;59.93;99648.81;4396017;32;20150;-91
2021/05/23 04:17:00;;;;;;;13.68;6.22;;;;;;;13.58;59.93;99649.03;4395786;32;20229;-90
2021/05/23 04:19:25;;;;;;;12.15;7.12;;;;;;;13.62;59.93;99642.72;4421150;32;20196;-90
2021/05/23 04:21:50;;;;;;;13.00;6.78;;;;;;;13.64;59.94;99651.34;4395204;32;26223;-90
2021/05/23 04:24:16;;;;;;;11.23;6.85;;;;;;;13.73;59.94;99648.34;4408260;32;20173;-90
2021/05/23 04:26:41;;;;;;;12.02;7.55;;;;;;;13.70;59.94;99653.69;4408325;32;20125;-91
2021/05/23 04:29:07;;;;;;;10.32;6.53;;;;;;;13.79;59.94;99642.81;4407834;32;31628;-91
2021/05/23 04:31:32;;;;;;;10.18;7.00;;;;;;;13.87;59.94;99652.06;4407584;32;31829;-91
2021/05/23 04:33:58;;;;;;;12.23;7.30;;;;;;;13.83;59.94;99648.75;4420746;32;25162;-91
2021/05/23 04:36:23;;;;;;;13.20;7.57;;;;;;;13.79;59.93;99652.41;4408107;32;28545;-91
2021/05/23 04:38:49;;;;;;;15.00;7.85;;;;;;;13.86;59.94;99652.97;4408497;32;20101;-91
2021/05/23 04:41:14;;;;;;;12.73;7.78;;;;;;;13.78;59.93;99645.50;4396007;32;20173;-91
2021/05/23 04:43:39;;;;;;;12.15;6.30;;;;;;;13.89;59.94;99640.59;4407566;32;35644;-91
2021/05/23 04:46:05;;;;;;;14.02;7.78;;;;;;;13.92;59.94;99648.28;4395347;32;23534;-91
2021/05/23 04:48:30;;;;;;;17.95;7.87;;;;;;;13.93;59.94;99646.53;4407553;32;30943;-91
2021/05/23 04:50:56;;;;;;;14.32;7.50;;;;;;;13.94;59.94;99638.59;4395188;32;20164;-90
2021/05/23 04:53:21;;;;;;;10.88;6.47;;;;;;;14.04;59.95;99636.41;4407520;32;26481;-90
2021/05/23 04:55:46;;;;;;;11.18;6.15;;;;;;;13.98;59.95;99623.62;4421225;32;20171;-91
2021/05/23 04:58:12;;;;;;;11.65;6.35;;;;;;;14.07;59.95;99629.25;4407325;32;27474;-91
2021/05/23 05:00:37;;;;;;;12.90;6.95;;;;;;;14.08;59.95;99632.72;4407570;32;26713;-91
2021/05/23 05:03:03;;;;;;;12.10;7.05;;;;;;;14.12;59.96;99627.25;4394777;32;29922;-90
2021/05/23 05:05:28;;;;;;;7.47;5.82;;;;;;;14.15;59.96;99634.09;4395557;32;20149;-91
2021/05/23 05:07:53;;;;;;;11.52;7.75;;;;;;;14.18;59.97;99639.19;4408039;32;20394;-91
2021/05/23 05:10:19;;;;;;;11.10;6.75;;;;;;;14.20;59.96;99634.75;4394972;32;20166;-90
2021/05/23 05:12:44;;;;;;;11.00;6.30;;;;;;;14.16;59.95;99640.19;4407237;32;23788;-90
2021/05/23 05:15:10;;;;;;;8.48;6.07;;;;;;;14.21;59.96;99644.31;4395299;32;20141;-90
2021/05/23 05:17:35;;;;;;;10.57;6.87;;;;;;;14.22;59.96;99643.37;4407743;32;20145;-90
2021/05/23 05:20:02;;;;;;;12.27;6.57;;;;;;;14.21;59.96;99657.41;4407618;32;20121;-91
2021/05/23 05:22:27;;;;;;;11.65;6.82;;;;;;;14.19;59.97;99660.97;4407829;32;20132;-90
2021/05/23 05:24:53;;;;;;;11.63;6.45;;;;;;;14.36;59.97;99661.03;4407079;32;31270;-90
2021/05/23 05:27:20;;;;;;;8.43;6.28;;;;;;;14.29;59.97;99668.34;4406886;32;29088;-90
2021/05/23 05:29:46;;;;;;;8.75;6.37;;;;;;;14.31;59.96;99665.63;4420277;32;20105;-90
2021/05/23 05:32:11;;;;;;;14.02;6.72;;;;;;;14.35;59.97;99678.50;4407027;32;25327;-90
2021/05/23 05:34:36;;;;;;;13.20;6.68;;;;;;;14.33;59.96;99662.03;4420248;32;20464;-89
2021/05/23 05:37:03;;;;;;;10.07;6.78;;;;;;;14.36;59.97;99668.88;4406695;32;28525;-90
2021/05/23 05:39:28;;;;;;;9.27;6.03;;;;;;;14.35;59.97;99673.25;4407706;32;20167;-90
2021/05/23 05:41:54;;;;;;;13.85;6.12;;;;;;;14.36;59.97;99666.25;4394130;32;24978;-90
2021/05/23 05:44:19;;;;;;;10.13;6.50;;;;;;;14.33;59.96;99661.19;4394612;32;20401;-90
2021/05/23 05:46:44;;;;;;;10.93;6.75;;;;;;;14.40;59.98;99658.16;4419295;32;34369;-90
2021/05/23 05:49:10;;;;;;;12.23;5.93;;;;;;;14.37;59.97;99655.69;4406409;32;31790;-90
2021/05/23 05:51:35;;;;;;;10.70;5.82;;;;;;;14.42;59.98;99652.84;4406637;32;29798;-90
2021/05/23 05:54:01;;;;;;;9.60;6.00;;;;;;;14.52;59.98;99654.16;4419947;32;20150;-89
2021/05/23 05:56:26;;;;;;;11.30;5.93;;;;;;;14.49;59.98;99651.69;4393730;32;28363;-90
2021/05/23 05:58:52;;;;;;;8.25;6.10;;;;;;;14.46;59.97;99646.59;4394363;32;20386;-90
2021/05/23 06:01:17;;;;;;;8.65;6.20;;;;;;;14.45;59.97;99644.91;4406941;32;24022;-90
2021/05/23 06:03:42;;;;;;;8.15;5.60;;;;;;;14.52;59.97;99643.66;4409297;32;20162;-89
2021/05/23 06:06:08;;;;;;;13.50;6.93;;;;;;;14.66;59.99;99641.19;4408771;32;25927;-90
2021/05/23 06:08:33;;;;;;;9.10;6.30;;;;;;;14.61;59.98;99634.50;4409519;32;20153;-90
2021/05/23 06:10:59;;;;;;;9.10;5.95;;;;;;;14.61;59.98;99627.47;4396813;32;20724;-91
2021/05/23 06:13:24;;;;;;;7.95;6.00;;;;;;;14.75;59.98;99618.94;4396504;32;20132;-91
2021/05/23 06:15:50;;;;;;;8.35;5.25;;;;;;;14.65;59.98;99618.53;4397577;32;20149;-90
2021/05/23 06:18:15;;;;;;;9.45;6.47;;;;;;;14.73;59.99;99619.00;4410810;32;20815;-90
2021/05/23 06:20:40;;;;;;;12.45;6.95;;;;;;;14.86;59.99;99632.31;4398076;32;20165;-92
2021/05/23 06:23:07;;;;;;;8.55;6.25;;;;;;;14.80;60.00;99640.50;4398908;32;20148;-90
2021/05/23 06:25:32;;;;;;;11.80;6.60;;;;;;;14.93;59.99;99644.22;4406735;32;20074;-91
2021/05/23 06:27:57;;;;;;;11.38;6.93;;;;;;;14.95;60.00;99641.50;4412912;32;20459;-90
2021/05/23 06:30:23;;;;;;;8.43;6.40;;;;;;;15.12;60.01;99632.75;4408023;32;28623;-90
2021/05/23 06:32:48;;;;;;;11.70;6.75;;;;;;;15.00;59.99;99640.34;4429575;32;20152;-89
2021/05/23 06:35:14;;;;;;;11.32;7.07;;;;;;;15.04;60.01;99647.09;4408595;32;26587;-90
2021/05/23 06:37:40;;;;;;;11.18;6.55;;;;;;;15.03;60.00;99653.28;4421765;32;20132;-90
2021/05/23 06:40:06;;;;;;;12.43;7.07;;;;;;;15.15;60.01;99645.72;4421619;32;20375;-90
2021/05/23 06:42:31;;;;;;;9.07;6.43;;;;;;;15.14;60.01;99644.00;4421689;32;20150;-90
2021/05/23 06:44:57;;;;;;;13.00;6.90;;;;;;;15.24;60.01;99640.81;4396000;32;20113;-89
2021/05/23 06:47:22;;;;;;;9.52;6.55;;;;;;;15.30;60.02;99637.88;4396209;32;20121;-90
2021/05/23 06:49:47;;;;;;;17.70;7.10;;;;;;;15.30;60.02;99626.53;4408353;32;22778;-89
2021/05/23 06:52:13;;;;;;;9.65;7.05;;;;;;;15.36;60.02;99607.84;4421326;32;23672;-89
2021/05/23 06:54:38;;;;;;;10.38;7.03;;;;;;;15.36;60.02;99613.09;4395622;32;31863;-89
2021/05/23 06:57:04;;;;;;;12.65;7.37;;;;;;;15.32;60.01;99630.75;4420669;32;37802;-89
2021/05/23 06:59:29;;;;;;;11.18;7.57;;;;;;;15.34;60.02;99644.63;4421620;32;20169;-89
2021/05/23 07:01:55;;;;;;;12.75;7.57;;;;;;;15.37;60.02;99627.87;4421743;32;20168;-89
2021/05/23 07:04:20;;;;;;;12.65;8.93;;;;;;;15.29;60.02;99609.09;4408810;32;20113;-89
2021/05/23 07:06:45;;;;;;;11.93;8.20;;;;;;;15.33;60.02;99621.13;4408603;32;20415;-89
2021/05/23 07:09:11;;;;;;;13.57;8.13;;;;;;;15.37;60.02;99617.41;4408574;32;20456;-90
2021/05/23 07:11:36;;;;;;;12.05;8.45;;;;;;;15.52;60.03;99615.72;4421509;32;20184;-90
2021/05/23 07:14:02;;;;;;;12.05;8.45;;;;;;;15.32;60.01;99609.78;4420328;32;20171;-90
2021/05/23 07:16:27;;;;;;;12.63;8.95;;;;;;;15.29;60.01;99609.09;4408634;32;20109;-90
2021/05/23 07:18:52;;;;;;;11.32;8.35;;;;;;;15.34;60.02;99605.28;4408485;32;20145;-88
2021/05/23 07:21:18;;;;;;;12.52;8.98;;;;;;;15.45;60.03;99603.88;4407751;32;32649;-88
2021/05/23 07:23:43;;;;;;;14.00;9.25;;;;;;;15.47;60.03;99613.37;4407355;32;20208;-88
2021/05/23 07:26:09;;;;;;;13.27;9.38;;;;;;;15.74;60.04;99623.31;4407543;32;27862;-90
2021/05/23 07:28:34;;;;;;;12.13;8.85;;;;;;;15.76;60.04;99629.31;4395086;32;20287;-89
2021/05/23 07:31:00;;;;;;;15.63;9.40;;;;;;;15.81;60.04;99633.38;4408104;32;20148;-89
2021/05/23 07:33:26;;;;;;;12.18;9.13;;;;;;;15.87;60.05;99650.59;4396135;32;20173;-91
2021/05/23 07:35:51;;;;;;;12.40;8.93;;;;;;;16.09;60.06;99661.59;4395904;32;20113;-90
2021/05/23 07:38:17;;;;;;;13.80;9.63;;;;;;;16.13;60.06;99665.72;4421641;32;20145;-90
2021/05/23 07:40:42;;;;;;;15.90;10.65;;;;;;;16.08;60.05;99654.62;4408260;32;29928;-90
2021/05/23 07:43:07;;;;;;;13.38;10.20;;;;;;;16.23;60.06;99652.91;4408345;32;24349;-90
2021/05/23 07:45:33;;;;;;;15.07;10.77;;;;;;;16.24;60.06;99665.13;4421504;32;20117;-89
2021/05/23 07:47:58;;;;;;;18.65;10.38;;;;;;;16.15;60.06;99658.63;4421076;32;20185;-90
2021/05/23 07:50:24;;;;;;;16.70;10.82;;;;;;;16.18;60.07;99658.44;4395249;32;36694;-90
2021/05/23 07:52:49;;;;;;;16.98;11.32;;;;;;;16.34;60.08;99647.06;4396405;32;20767;-91
2021/05/23 07:55:14;;;;;;;18.05;10.73;;;;;;;16.51;60.08;99641.66;4421300;32;23003;-90
2021/05/23 07:57:40;;;;;;;17.23;10.80;;;;;;;16.83;60.10;99642.47;4408860;32;20447;-90
2021/05/23 08:00:06;;;;;;;13.52;9.98;;;;;;;16.85;60.10;99638.81;4408602;32;20120;-91
2021/05/23 08:02:31;;;;;;;17.92;12.00;;;;;;;16.95;60.11;99627.72;4409338;32;20325;-91
2021/05/23 08:04:56;;;;;;;18.87;11.95;;;;;;;16.98;60.11;99622.28;4408204;32;24682;-90
2021/05/23 08:07:23;;;;;;;15.98;10.75;;;;;;;16.83;60.10;99614.41;4421125;32;20522;-89
2021/05/23 08:09:48;;;;;;;13.88;10.35;;;;;;;17.03;60.11;99601.81;4421126;32;20153;-90
2021/05/23 08:12:13;;;;;;;16.35;11.18;;;;;;;17.11;60.11;99610.94;4422279;32;20194;-91
2021/05/23 08:14:39;;;;;;;15.95;10.30;;;;;;;17.31;60.12;99601.81;4397127;32;20137;-91
2021/05/23 08:17:04;;;;;;;17.98;11.60;;;;;;;17.50;60.13;99610.25;4408581;32;28090;-90
2021/05/23 08:19:30;;;;;;;16.85;12.02;;;;;;;17.55;60.13;99617.03;4409319;32;20180;-90
2021/05/23 08:21:55;;;;;;;18.27;11.50;;;;;;;17.63;60.14;99625.28;4396931;32;20490;-92
2021/05/23 08:24:21;;;;;;;17.52;10.95;;;;;;;17.63;60.14;99615.59;4408199;32;23081;-92
2021/05/23 08:26:46;;;;;;;14.77;11.55;;;;;;;17.74;60.14;99609.66;4396373;32;20475;-91
2021/05/23 08:29:11;;;;;;;12.73;10.45;;;;;;;17.87;60.16;99607.09;4396464;32;20132;-91
2021/05/23 08:31:37;;;;;;;17.73;11.52;;;;;;;17.97;60.16;99610.81;4397119;32;20573;-92
2021/05/23 08:34:02;;;;;;;17.90;12.13;;;;;;;17.90;60.15;99613.00;4408847;32;21069;-92
2021/05/23 08:36:28;;;;;;;17.33;12.75;;;;;;;18.08;60.17;99606.56;4408614;32;20143;-92
2021/05/23 08:38:53;;;;;;;15.00;11.77;;;;;;;17.99;60.15;99607.19;4395527;32;20105;-92
2021/05/23 08:41:19;;;;;;;16.65;12.07;;;;;;;17.99;60.15;99601.06;4396010;32;20099;-92
2021/05/23 08:43:45;;;;;;;22.67;13.02;;;;;;;17.99;60.16;99591.38;4395847;32;20136;-91
2021/05/23 08:46:11;;;;;;;16.85;12.75;;;;;;;17.86;60.15;99595.72;4421128;32;20109;-91
2021/05/23 08:48:37;;;;;;;18.10;11.95;;;;;;;17.85;60.14;99598.47;4408493;32;20120;-91
2021/05/23 08:51:03;;;;;;;15.95;12.05;;;;;;;17.91;60.15;99608.59;4395685;32;20101;-91
2021/05/23 08:53:28;;;;;;;17.60;13.13;;;;;;;17.78;60.14;99621.72;4408604;32;20176;-92
2021/05/23 08:55:54;;;;;;;33.08;26.98;;;;;;;17.88;60.15;99614.06;4421043;32;20442;-92
2021/05/23 08:58:19;;;;;;;19.23;13.62;;;;;;;17.72;60.15;99616.81;4420566;32;26042;-92
2021/05/23 09:00:45;;;;;;;17.37;13.32;;;;;;;17.71;60.15;99605.44;4408614;32;20205;-92
2021/05/23 09:03:12;;;;;;;20.73;14.63;;;;;;;17.81;60.15;99607.50;4409169;32;20074;-92
2021/05/23 09:05:56;;;;;;;19.85;13.80;;;;;;;17.56;60.13;99603.75;4411891;32;20074;-92
2021/05/23 09:08:24;;;;;;;19.77;13.80;;;;;;;17.61;60.13;99606.09;4422405;32;20109;-93
2021/05/23 09:10:52;;;;;;;21.10;15.18;;;;;;;17.57;60.13;99602.81;4396571;32;20719;-92
2021/05/23 09:13:35;;;;;;;20.85;15.68;;;;;;;17.15;60.12;99607.16;4395753;32;20478;-92
2021/05/23 09:16:05;;;;;;;19.08;15.38;;;;;;;17.15;60.11;99619.47;4395864;32;20208;-92
2021/05/23 09:18:39;;;;;;;;;;;;;;;17.27;60.12;99621.38;4396022;32;20461;-92
2021/05/23 09:21:05;;;;;;;18.87;14.57;;;;;;;17.25;60.12;99625.00;4421114;32;19977;-91
2021/05/23 09:23:45;;;;;;;19.52;14.87;;;;;;;17.22;60.12;99626.03;4395097;32;20690;-91
2021/05/23 09:26:14;;;;;;;20.45;14.68;;;;;;;17.33;60.13;99620.13;4396157;32;20132;-91
2021/05/23 09:28:39;;;;;;;22.58;15.55;;;;;;;17.54;60.13;99608.28;4395109;32;20844;-90
2021/05/23 09:31:12;;;;;;;18.02;14.87;;;;;;;17.58;60.14;99611.56;4394377;32;22138;-91
2021/05/23 09:33:42;;;;;;;20.90;15.02;;;;;;;17.82;60.15;99607.41;4407662;32;20110;-90
2021/05/23 09:36:08;;;;;;;17.73;13.23;;;;;;;17.77;60.14;99609.50;4395320;32;20113;-90
2021/05/23 09:38:33;;;;;;;22.52;14.43;;;;;;;17.65;60.14;99592.66;4396226;32;32747;-91
2021/05/23 09:40:59;;;;;;;25.65;17.12;;;;;;;17.66;60.14;99585.59;4422076;32;20104;-90
2021/05/23 09:43:25;;;;;;;17.25;14.45;;;;;;;17.71;60.14;99584.38;4421780;32;22525;-91
2021/05/23 09:45:52;;;;;;;21.27;14.63;;;;;;;17.91;60.14;99569.09;4422461;32;20109;-92
2021/05/23 09:48:21;;;;;;;20.12;14.07;;;;;;;18.19;60.17;99568.97;4397245;32;20089;-91
2021/05/23 09:50:48;;;;;;;18.23;13.10;;;;;;;18.41;60.18;99563.12;4422255;32;20081;-91
2021/05/23 09:53:33;;;;;;;20.45;13.27;;;;;;;18.47;60.17;99551.34;4397169;32;20194;-92
2021/05/23 09:56:03;;;;;;;16.42;12.80;;;;;;;18.14;60.16;99551.78;4409591;32;20158;-91
2021/05/23 09:58:37;;;;;;;17.95;13.48;;;;;;;18.26;60.17;99553.63;4422358;32;20090;-90
2021/05/23 10:01:06;;;;;;;16.80;13.07;;;;;;;17.96;60.16;99556.47;4396879;32;20462;-91
2021/05/23 10:03:33;;;;;;;16.65;12.63;;;;;;;18.06;60.16;99555.78;4396817;32;20106;-90
2021/05/23 10:05:59;;;;;;;21.02;14.40;;;;;;;18.06;60.16;99561.03;4396754;32;20163;-91
2021/05/23 10:08:25;;;;;;;19.37;15.40;;;;;;;18.07;60.16;99572.44;4396785;32;20120;-91
2021/05/23 10:10:51;;;;;;;18.30;14.15;;;;;;;18.16;60.17;99568.31;4422091;32;20117;-91
2021/05/23 10:13:17;;;;;;;21.12;15.32;;;;;;;18.35;60.17;99560.91;4422165;32;20113;-89
2021/05/23 10:15:42;;;;;;;20.62;14.20;;;;;;;18.45;60.18;99575.13;4396543;32;20102;-91
2021/05/23 10:18:08;;;;;;;15.52;13.15;;;;;;;18.50;60.19;99570.41;4396454;32;20125;-90
2021/05/23 10:20:34;;;;;;;16.67;12.30;;;;;;;18.51;60.19;99582.66;4396470;32;20145;-90
2021/05/23 10:23:04;;;;;;;19.37;14.15;;;;;;;18.42;60.18;99577.97;4421872;32;20110;-90
2021/05/23 10:25:29;;;;;;;18.80;12.27;;;;;;;18.51;60.18;99572.09;4421907;32;20109;-90
2021/05/23 10:27:55;;;;;;;18.17;14.95;;;;;;;18.48;60.19;99572.31;4421872;32;20086;-90
2021/05/23 10:30:21;;;;;;;21.83;14.32;;;;;;;18.45;60.18;99572.50;4396338;32;20129;-91
2021/05/23 10:32:46;;;;;;;34.80;31.08;;;;;;;18.61;60.18;99573.16;4421676;32;20474;-90
2021/05/23 10:35:32;;;;;;;25.27;18.48;;;;;;;18.57;60.19;99563.78;4421743;32;20132;-90
2021/05/23 10:38:06;;;;;;;22.62;15.65;;;;;;;18.53;60.18;99570.22;4410681;32;20105;-90
2021/05/23 10:40:32;;;;;;;24.25;17.42;;;;;;;18.47;60.17;99575.06;4409323;32;20446;-90
2021/05/23 10:42:58;;;;;;;20.23;16.12;;;;;;;18.39;60.18;99581.66;4421519;32;20704;-90
2021/05/23 10:45:25;;;;;;;22.55;16.25;;;;;;;18.36;60.18;99576.59;4409361;32;20106;-90
2021/05/23 10:47:50;;;;;;;19.73;14.15;;;;;;;18.32;60.18;99569.00;4421684;32;20203;-90
2021/05/23 10:50:16;;;;;;;17.40;13.25;;;;;;;18.13;60.17;99564.09;4421595;32;20126;-90
2021/05/23 10:52:44;;;;;;;18.50;11.52;;;;;;;18.36;60.17;99557.31;4408863;32;20430;-90
2021/05/23 10:55:11;;;;;;;18.05;12.10;;;;;;;18.59;60.19;99548.69;4422955;32;20593;-90
2021/05/23 10:57:44;;;;;;;13.48;11.15;;;;;;;18.29;60.17;99548.12;4396288;32;20503;-89
2021/05/23 11:00:32;;;;;;;18.92;11.60;;;;;;;18.15;60.16;99566.66;4421526;32;20116;-90
2021/05/23 11:03:09;;;;;;;18.20;12.27;;;;;;;18.00;60.17;99566.72;4423730;32;20400;-90
2021/05/23 11:05:34;;;;;;;21.95;12.82;;;;;;;17.60;60.14;99565.78;4409004;32;20098;-90
2021/05/23 11:08:00;;;;;;;17.77;12.10;;;;;;;17.60;60.14;99531.56;4420708;32;34532;-90
2021/05/23 11:10:44;;;;;;;18.40;12.05;;;;;;;17.59;60.13;99534.28;4421411;32;20086;-90
2021/05/23 11:13:25;;;;;;;49.40;24.25;;;;;;;17.68;60.14;99524.03;4409972;32;20127;-90
2021/05/23 11:15:51;;;;;;;19.87;14.20;;;;;;;17.49;60.13;99516.44;4421315;32;20157;-90
2021/05/23 11:18:23;;;;;;;17.02;12.32;;;;;;;17.55;60.13;99509.12;4408784;32;20119;-90
2021/05/23 11:21:02;;;;;;;21.02;12.25;;;;;;;17.67;60.14;99496.03;4409011;32;20462;-90
2021/05/23 11:23:28;;;;;;;15.98;11.32;;;;;;;17.86;60.16;99492.19;4408872;32;20102;-89